createdAt,value
2019-02-27T00:00:37.928Z,1025.59
2019-02-27T00:01:18.551Z,1025.61
2019-02-27T00:01:59.148Z,1025.6
2019-02-27T00:02:39.774Z,1025.59
2019-02-27T00:03:20.527Z,1025.6
2019-02-27T00:04:02.351Z,1025.58
2019-02-27T00:04:41.754Z,1025.62
2019-02-27T00:05:22.353Z,1025.58
2019-02-27T00:06:02.997Z,1025.61
2019-02-27T00:06:47.623Z,1025.64
2019-02-27T00:07:24.313Z,1025.59
2019-02-27T00:08:04.932Z,1025.61
2019-02-27T00:08:45.654Z,1025.63
2019-02-27T00:09:26.342Z,1025.62
2019-02-27T00:10:06.974Z,1025.62
2019-02-27T00:10:47.660Z,1025.61
2019-02-27T00:11:28.289Z,1025.58
2019-02-27T00:12:08.928Z,1025.59
2019-02-27T00:12:51.819Z,1025.58
2019-02-27T00:13:30.375Z,1025.58
2019-02-27T00:14:11.119Z,1025.55
2019-02-27T00:14:51.705Z,1025.51
2019-02-27T00:15:32.370Z,1025.49
2019-02-27T00:17:27.691Z,1025.47
2019-02-27T00:19:43.108Z,1025.46
2019-02-27T00:20:23.826Z,1025.48
2019-02-27T00:21:04.576Z,1025.48
2019-02-27T00:21:45.207Z,1025.47
2019-02-27T00:22:25.980Z,1025.46
2019-02-27T00:23:06.543Z,1025.43
2019-02-27T00:23:47.304Z,1025.45
2019-02-27T00:24:29.872Z,1025.44
2019-02-27T00:25:08.771Z,1025.43
2019-02-27T00:25:49.464Z,1025.44
2019-02-27T00:26:30.273Z,1025.48
2019-02-27T00:27:14.571Z,1025.44
2019-02-27T00:27:51.809Z,1025.41
2019-02-27T00:28:32.470Z,1025.42
2019-02-27T00:29:13.146Z,1025.41
2019-02-27T00:29:53.840Z,1025.44
2019-02-27T00:30:37.855Z,1025.44
2019-02-27T00:31:15.045Z,1025.4
2019-02-27T00:31:55.725Z,1025.42
2019-02-27T00:32:36.362Z,1025.42
2019-02-27T00:33:16.960Z,1025.45
2019-02-27T00:33:59.813Z,1025.44
2019-02-27T00:34:38.374Z,1025.44
2019-02-27T00:35:19.105Z,1025.39
2019-02-27T00:35:59.784Z,1025.42
2019-02-27T00:36:44.770Z,1025.37
2019-02-27T00:37:21.025Z,1025.35
2019-02-27T00:38:01.677Z,1025.33
2019-02-27T00:38:42.242Z,1025.34
2019-02-27T00:39:22.850Z,1025.34
2019-02-27T00:40:05.587Z,1025.34
2019-02-27T00:40:44.184Z,1025.35
2019-02-27T00:41:24.920Z,1025.36
2019-02-27T00:42:05.562Z,1025.35
2019-02-27T00:42:46.203Z,1025.38
2019-02-27T00:43:28.386Z,1025.36
2019-02-27T00:44:07.471Z,1025.38
2019-02-27T00:44:48.231Z,1025.36
2019-02-27T00:45:28.853Z,1025.34
2019-02-27T00:46:10.692Z,1025.38
2019-02-27T00:46:50.224Z,1025.33
2019-02-27T00:47:30.865Z,1025.37
2019-02-27T00:48:11.540Z,1025.32
2019-02-27T00:48:52.221Z,1025.29
2019-02-27T00:49:33.049Z,1025.31
2019-02-27T00:50:13.547Z,1025.31
2019-02-27T00:50:54.338Z,1025.25
2019-02-27T00:51:35.011Z,1025.29
2019-02-27T00:52:17.983Z,1025.27
2019-02-27T00:52:56.440Z,1025.25
2019-02-27T00:53:37.081Z,1025.28
2019-02-27T00:54:17.803Z,1025.3
2019-02-27T00:54:58.587Z,1025.29
2019-02-27T00:55:39.514Z,1025.24
2019-02-27T00:56:19.887Z,1025.23
2019-02-27T00:57:00.551Z,1025.25
2019-02-27T00:57:41.203Z,1025.25
2019-02-27T00:58:21.847Z,1025.24
2019-02-27T00:59:02.505Z,1025.2
2019-02-27T00:59:43.148Z,1025.22
2019-02-27T01:00:23.824Z,1025.27
2019-02-27T01:02:20.151Z,1025.28
2019-02-27T01:02:59.545Z,1025.28
2019-02-27T01:03:40.255Z,1025.26
2019-02-27T01:04:20.921Z,1025.25
2019-02-27T01:05:01.615Z,1025.24
2019-02-27T01:05:42.315Z,1025.28
2019-02-27T01:06:23.037Z,1025.28
2019-02-27T01:07:03.697Z,1025.27
2019-02-27T01:07:44.283Z,1025.27
2019-02-27T01:08:25.042Z,1025.27
2019-02-27T01:09:06.346Z,1025.27
2019-02-27T01:09:46.470Z,1025.26
2019-02-27T01:10:27.122Z,1025.27
2019-02-27T01:11:07.717Z,1025.23
2019-02-27T01:11:51.427Z,1025.23
2019-02-27T01:12:29.018Z,1025.21
2019-02-27T01:13:09.705Z,1025.22
2019-02-27T01:13:50.297Z,1025.2
2019-02-27T01:14:30.968Z,1025.2
2019-02-27T01:15:11.547Z,1025.24
2019-02-27T01:15:52.249Z,1025.23
2019-02-27T01:16:32.851Z,1025.22
2019-02-27T01:17:13.438Z,1025.24
2019-02-27T01:17:54.990Z,1025.23
2019-02-27T01:18:34.633Z,1025.25
2019-02-27T01:19:15.409Z,1025.26
2019-02-27T01:19:56.011Z,1025.23
2019-02-27T01:20:36.653Z,1025.24
2019-02-27T01:21:19.816Z,1025.23
2019-02-27T01:21:57.875Z,1025.21
2019-02-27T01:22:38.483Z,1025.23
2019-02-27T01:23:19.199Z,1025.22
2019-02-27T01:23:59.875Z,1025.25
2019-02-27T01:24:40.472Z,1025.24
2019-02-27T01:25:23.039Z,1025.27
2019-02-27T01:26:01.883Z,1025.3
2019-02-27T01:26:42.495Z,1025.28
2019-02-27T01:27:23.163Z,1025.26
2019-02-27T01:28:03.991Z,1025.27
2019-02-27T01:28:45.389Z,1025.23
2019-02-27T01:29:25.392Z,1025.21
2019-02-27T01:30:06.031Z,1025.23
2019-02-27T01:30:46.701Z,1025.23
2019-02-27T01:31:27.423Z,1025.16
2019-02-27T01:32:08.101Z,1025.2
2019-02-27T01:32:48.857Z,1025.18
2019-02-27T01:33:29.373Z,1025.18
2019-02-27T01:34:11.322Z,1025.19
2019-02-27T01:34:50.619Z,1025.19
2019-02-27T01:35:31.237Z,1025.22
2019-02-27T01:36:11.923Z,1025.22
2019-02-27T01:36:54.851Z,1025.21
2019-02-27T01:37:33.233Z,1025.19
2019-02-27T01:38:13.833Z,1025.22
2019-02-27T01:38:54.440Z,1025.16
2019-02-27T01:39:35.107Z,1025.17
2019-02-27T01:40:17.813Z,1025.14
2019-02-27T01:40:56.395Z,1025.14
2019-02-27T01:41:37.067Z,1025.15
2019-02-27T01:42:17.705Z,1025.13
2019-02-27T01:42:58.313Z,1025.12
2019-02-27T01:43:39.844Z,1025.14
2019-02-27T01:44:19.617Z,1025.1
2019-02-27T01:45:00.343Z,1025.1
2019-02-27T01:45:40.843Z,1025.09
2019-02-27T01:46:21.541Z,1025.11
2019-02-27T01:47:02.968Z,1025.06
2019-02-27T01:47:42.896Z,1025.08
2019-02-27T01:48:23.546Z,1025.06
2019-02-27T01:49:04.163Z,1025.1
2019-02-27T01:49:48.865Z,1025.1
2019-02-27T01:50:25.437Z,1025.1
2019-02-27T01:51:06.105Z,1025.11
2019-02-27T01:51:46.788Z,1025.1
2019-02-27T01:52:27.374Z,1025.07
2019-02-27T01:53:08.120Z,1025.06
2019-02-27T01:53:48.545Z,1025.04
2019-02-27T01:54:29.144Z,1025.02
2019-02-27T01:55:09.833Z,1025.02
2019-02-27T01:55:50.514Z,1025
2019-02-27T01:56:31.228Z,1025
2019-02-27T01:57:11.889Z,1024.99
2019-02-27T01:57:52.553Z,1025
2019-02-27T01:58:33.183Z,1024.99
2019-02-27T01:59:14.003Z,1024.97
2019-02-27T01:59:54.571Z,1024.94
2019-02-27T02:00:35.221Z,1024.93
2019-02-27T02:01:15.908Z,1024.92
2019-02-27T02:01:56.499Z,1024.92
2019-02-27T02:02:37.330Z,1024.91
2019-02-27T02:03:17.834Z,1024.89
2019-02-27T02:03:58.437Z,1024.86
2019-02-27T02:04:39.075Z,1024.86
2019-02-27T02:05:19.753Z,1024.85
2019-02-27T02:06:00.370Z,1024.84
2019-02-27T02:06:41.029Z,1024.82
2019-02-27T02:07:21.679Z,1024.81
2019-02-27T02:08:02.355Z,1024.8
2019-02-27T02:08:42.975Z,1024.82
2019-02-27T02:09:23.633Z,1024.81
2019-02-27T02:10:04.250Z,1024.81
2019-02-27T02:10:44.869Z,1024.79
2019-02-27T02:11:25.527Z,1024.82
2019-02-27T02:12:08.616Z,1024.82
2019-02-27T02:12:46.927Z,1024.82
2019-02-27T02:13:27.589Z,1024.81
2019-02-27T02:14:08.375Z,1024.79
2019-02-27T02:14:49.063Z,1024.78
2019-02-27T02:15:29.655Z,1024.77
2019-02-27T02:16:10.249Z,1024.78
2019-02-27T02:16:50.899Z,1024.72
2019-02-27T02:17:31.533Z,1024.71
2019-02-27T02:18:13.915Z,1024.72
2019-02-27T02:18:52.881Z,1024.69
2019-02-27T02:19:33.561Z,1024.68
2019-02-27T02:20:14.155Z,1024.65
2019-02-27T02:20:54.777Z,1024.65
2019-02-27T02:21:35.385Z,1024.62
2019-02-27T02:22:16.055Z,1024.62
2019-02-27T02:22:56.735Z,1024.63
2019-02-27T02:23:37.359Z,1024.61
2019-02-27T02:24:20.887Z,1024.6
2019-02-27T02:24:58.653Z,1024.59
2019-02-27T02:25:39.241Z,1024.58
2019-02-27T02:26:20.159Z,1024.56
2019-02-27T02:27:00.757Z,1024.56
2019-02-27T02:27:42.120Z,1024.58
2019-02-27T02:28:22.155Z,1024.54
2019-02-27T02:29:02.801Z,1024.48
2019-02-27T02:29:43.507Z,1024.49
2019-02-27T02:30:29.131Z,1024.47
2019-02-27T02:31:06.274Z,1024.42
2019-02-27T02:31:45.448Z,1024.4
2019-02-27T02:32:26.079Z,1024.39
2019-02-27T02:33:06.699Z,1024.35
2019-02-27T02:33:47.373Z,1024.28
2019-02-27T02:34:28.023Z,1024.24
2019-02-27T02:35:14.554Z,1024.27
2019-02-27T02:35:50.650Z,1024.21
2019-02-27T02:36:30.040Z,1024.26
2019-02-27T02:37:10.664Z,1024.21
2019-02-27T02:37:51.316Z,1024.26
2019-02-27T02:38:32.087Z,1024.21
2019-02-27T02:39:17.581Z,1024.21
2019-02-27T02:39:54.494Z,1024.22
2019-02-27T02:40:33.945Z,1024.21
2019-02-27T02:41:14.701Z,1024.22
2019-02-27T02:41:55.337Z,1024.23
2019-02-27T02:42:36.001Z,1024.24
2019-02-27T02:43:16.730Z,1024.24
2019-02-27T02:43:57.402Z,1024.16
2019-02-27T02:44:38.004Z,1024.23
2019-02-27T02:45:18.647Z,1024.2
2019-02-27T02:45:59.251Z,1024.17
2019-02-27T02:46:44.721Z,1024.17
2019-02-27T02:47:21.480Z,1024.13
2019-02-27T02:48:01.187Z,1024.17
2019-02-27T02:48:41.969Z,1024.11
2019-02-27T02:49:22.565Z,1024.11
2019-02-27T02:50:03.239Z,1024.08
2019-02-27T02:50:43.821Z,1024.05
2019-02-27T02:51:28.523Z,1024.06
2019-02-27T02:52:05.900Z,1024.01
2019-02-27T02:52:45.796Z,1024.07
2019-02-27T02:53:26.441Z,1024.09
2019-02-27T02:54:07.146Z,1024.09
2019-02-27T02:54:47.794Z,1024.06
2019-02-27T02:55:28.417Z,1024.06
2019-02-27T02:56:09.110Z,1024.03
2019-02-27T02:56:49.705Z,1024.08
2019-02-27T02:57:35.812Z,1024.06
2019-02-27T02:58:12.192Z,1024.05
2019-02-27T02:58:51.648Z,1024.02
2019-02-27T02:59:32.321Z,1024
2019-02-27T03:00:12.924Z,1023.94
2019-02-27T03:00:53.602Z,1023.92
2019-02-27T03:01:34.288Z,1023.91
2019-02-27T03:02:14.931Z,1023.88
2019-02-27T03:02:57.421Z,1023.87
2019-02-27T03:03:37.339Z,1023.83
2019-02-27T03:04:16.849Z,1023.8
2019-02-27T03:04:57.474Z,1023.81
2019-02-27T03:05:38.129Z,1023.79
2019-02-27T03:06:18.719Z,1023.78
2019-02-27T03:06:59.313Z,1023.8
2019-02-27T03:07:44.415Z,1023.77
2019-02-27T03:08:21.079Z,1023.78
2019-02-27T03:09:01.457Z,1023.79
2019-02-27T03:09:42.127Z,1023.81
2019-02-27T03:10:22.774Z,1023.77
2019-02-27T03:11:03.513Z,1023.78
2019-02-27T03:11:44.126Z,1023.76
2019-02-27T03:12:29.673Z,1023.74
2019-02-27T03:13:07.018Z,1023.71
2019-02-27T03:13:46.211Z,1023.74
2019-02-27T03:14:26.869Z,1023.74
2019-02-27T03:15:07.496Z,1023.73
2019-02-27T03:15:48.200Z,1023.77
2019-02-27T03:16:28.882Z,1023.72
2019-02-27T03:17:09.552Z,1023.75
2019-02-27T03:17:53.525Z,1023.74
2019-02-27T03:18:30.874Z,1023.75
2019-02-27T03:19:11.456Z,1023.7
2019-02-27T03:19:52.033Z,1023.72
2019-02-27T03:20:32.628Z,1023.69
2019-02-27T03:21:13.287Z,1023.74
2019-02-27T03:21:53.854Z,1023.73
2019-02-27T03:22:40.145Z,1023.71
2019-02-27T03:23:15.555Z,1023.71
2019-02-27T03:23:55.624Z,1023.72
2019-02-27T03:24:36.223Z,1023.68
2019-02-27T03:25:16.853Z,1023.7
2019-02-27T03:25:57.453Z,1023.69
2019-02-27T03:26:38.083Z,1023.66
2019-02-27T03:27:18.704Z,1023.66
2019-02-27T03:28:04.362Z,1023.68
2019-02-27T03:28:40.883Z,1023.64
2019-02-27T03:29:20.533Z,1023.63
2019-02-27T03:30:01.119Z,1023.64
2019-02-27T03:30:41.742Z,1023.63
2019-02-27T03:31:22.341Z,1023.6
2019-02-27T03:32:02.917Z,1023.6
2019-02-27T03:32:43.874Z,1023.64
2019-02-27T03:33:26.640Z,1023.62
2019-02-27T03:34:07.704Z,1023.6
2019-02-27T03:34:50.124Z,1023.59
2019-02-27T03:35:29.051Z,1023.6
2019-02-27T03:36:06.484Z,1023.61
2019-02-27T03:36:47.081Z,1023.62
2019-02-27T03:37:27.684Z,1023.62
2019-02-27T03:38:08.297Z,1023.58
2019-02-27T03:38:48.875Z,1023.59
2019-02-27T03:39:34.290Z,1023.61
2019-02-27T03:40:11.730Z,1023.58
2019-02-27T03:40:50.643Z,1023.59
2019-02-27T03:41:31.241Z,1023.59
2019-02-27T03:42:11.845Z,1023.58
2019-02-27T03:42:52.418Z,1023.56
2019-02-27T03:43:32.993Z,1023.56
2019-02-27T03:44:13.597Z,1023.56
2019-02-27T03:44:56.131Z,1023.57
2019-02-27T03:45:34.757Z,1023.55
2019-02-27T03:46:15.357Z,1023.55
2019-02-27T03:46:55.946Z,1023.54
2019-02-27T03:47:36.534Z,1023.56
2019-02-27T03:48:17.143Z,1023.56
2019-02-27T03:49:02.906Z,1023.49
2019-02-27T03:49:40.643Z,1023.54
2019-02-27T03:50:18.942Z,1023.53
2019-02-27T03:50:59.522Z,1023.55
2019-02-27T03:51:40.114Z,1023.55
2019-02-27T03:52:20.697Z,1023.56
2019-02-27T03:53:01.285Z,1023.56
2019-02-27T03:53:43.112Z,1023.6
2019-02-27T03:54:22.483Z,1023.57
2019-02-27T03:55:03.089Z,1023.58
2019-02-27T03:55:43.682Z,1023.61
2019-02-27T03:56:24.275Z,1023.61
2019-02-27T03:57:04.890Z,1023.58
2019-02-27T03:57:45.489Z,1023.6
2019-02-27T03:58:26.765Z,1023.62
2019-02-27T03:59:07.432Z,1023.6
2019-02-27T03:59:47.277Z,1023.58
2019-02-27T04:00:27.941Z,1023.53
2019-02-27T04:01:08.552Z,1023.53
2019-02-27T04:01:49.141Z,1023.59
2019-02-27T04:02:29.730Z,1023.57
2019-02-27T04:03:10.324Z,1023.53
2019-02-27T04:03:55.212Z,1023.51
2019-02-27T04:04:31.522Z,1023.54
2019-02-27T04:05:12.096Z,1023.48
2019-02-27T04:05:52.676Z,1023.51
2019-02-27T04:06:33.264Z,1023.51
2019-02-27T04:07:13.851Z,1023.47
2019-02-27T04:07:54.446Z,1023.46
2019-02-27T04:08:35.045Z,1023.44
2019-02-27T04:09:18.484Z,1023.44
2019-02-27T04:09:56.448Z,1023.42
2019-02-27T04:10:36.897Z,1023.45
2019-02-27T04:11:17.525Z,1023.45
2019-02-27T04:11:58.146Z,1023.42
2019-02-27T04:12:38.738Z,1023.45
2019-02-27T04:13:19.335Z,1023.49
2019-02-27T04:14:04.628Z,1023.43
2019-02-27T04:14:42.077Z,1023.43
2019-02-27T04:15:21.104Z,1023.46
2019-02-27T04:16:01.720Z,1023.48
2019-02-27T04:16:42.306Z,1023.48
2019-02-27T04:17:22.901Z,1023.49
2019-02-27T04:18:03.536Z,1023.48
2019-02-27T04:18:44.104Z,1023.49
2019-02-27T04:19:24.684Z,1023.51
2019-02-27T04:20:05.288Z,1023.49
2019-02-27T04:20:49.454Z,1023.49
2019-02-27T04:21:26.514Z,1023.5
2019-02-27T04:22:07.109Z,1023.49
2019-02-27T04:22:47.696Z,1023.5
2019-02-27T04:23:28.265Z,1023.48
2019-02-27T04:24:08.866Z,1023.45
2019-02-27T04:24:49.452Z,1023.49
2019-02-27T04:25:31.333Z,1023.5
2019-02-27T04:26:10.642Z,1023.5
2019-02-27T04:26:51.238Z,1023.51
2019-02-27T04:27:31.821Z,1023.53
2019-02-27T04:28:12.408Z,1023.53
2019-02-27T04:28:52.987Z,1023.52
2019-02-27T04:29:33.581Z,1023.53
2019-02-27T04:30:14.955Z,1023.53
2019-02-27T04:30:54.765Z,1023.53
2019-02-27T04:31:35.372Z,1023.54
2019-02-27T04:32:15.972Z,1023.53
2019-02-27T04:32:56.558Z,1023.57
2019-02-27T04:33:37.161Z,1023.51
2019-02-27T04:34:17.762Z,1023.55
2019-02-27T04:34:58.415Z,1023.6
2019-02-27T04:35:39.629Z,1023.62
2019-02-27T04:36:19.613Z,1023.62
2019-02-27T04:37:00.186Z,1023.64
2019-02-27T04:37:40.804Z,1023.65
2019-02-27T04:38:21.385Z,1023.62
2019-02-27T04:39:02.373Z,1023.69
2019-02-27T04:39:42.582Z,1023.69
2019-02-27T04:40:23.171Z,1023.68
2019-02-27T04:41:03.790Z,1023.7
2019-02-27T04:41:44.386Z,1023.7
2019-02-27T04:42:25.653Z,1023.7
2019-02-27T04:43:05.576Z,1023.7
2019-02-27T04:43:46.177Z,1023.69
2019-02-27T04:44:26.785Z,1023.68
2019-02-27T04:45:09.798Z,1023.71
2019-02-27T04:45:47.996Z,1023.72
2019-02-27T04:46:28.589Z,1023.72
2019-02-27T04:47:09.189Z,1023.71
2019-02-27T04:47:49.795Z,1023.73
2019-02-27T04:48:30.593Z,1023.71
2019-02-27T04:49:10.975Z,1023.69
2019-02-27T04:49:51.554Z,1023.68
2019-02-27T04:50:32.157Z,1023.73
2019-02-27T04:51:16.843Z,1023.73
2019-02-27T04:51:53.359Z,1023.72
2019-02-27T04:52:33.945Z,1023.73
2019-02-27T04:53:14.537Z,1023.73
2019-02-27T04:53:55.134Z,1023.71
2019-02-27T04:54:35.778Z,1023.76
2019-02-27T04:55:16.384Z,1023.79
2019-02-27T04:55:56.977Z,1023.79
2019-02-27T04:56:37.590Z,1023.78
2019-02-27T04:57:18.197Z,1023.8
2019-02-27T04:57:58.792Z,1023.82
2019-02-27T04:58:42.699Z,1023.8
2019-02-27T04:59:19.991Z,1023.78
2019-02-27T05:00:00.592Z,1023.81
2019-02-27T05:00:41.189Z,1023.79
2019-02-27T05:01:21.794Z,1023.8
2019-02-27T05:02:02.403Z,1023.77
2019-02-27T05:02:43.041Z,1023.78
2019-02-27T05:03:25.758Z,1023.76
2019-02-27T05:04:04.244Z,1023.74
2019-02-27T05:04:44.845Z,1023.75
2019-02-27T05:05:25.434Z,1023.73
2019-02-27T05:06:06.021Z,1023.75
2019-02-27T05:06:47.244Z,1023.75
2019-02-27T05:07:27.219Z,1023.75
2019-02-27T05:08:07.822Z,1023.76
2019-02-27T05:08:48.407Z,1023.77
2019-02-27T05:09:31.300Z,1023.78
2019-02-27T05:10:09.590Z,1023.79
2019-02-27T05:10:50.237Z,1023.81
2019-02-27T05:11:30.836Z,1023.81
2019-02-27T05:12:11.424Z,1023.81
2019-02-27T05:12:52.016Z,1023.81
2019-02-27T05:13:34.492Z,1023.81
2019-02-27T05:14:13.197Z,1023.82
2019-02-27T05:14:53.786Z,1023.82
2019-02-27T05:15:38.667Z,1023.85
2019-02-27T05:16:14.992Z,1023.83
2019-02-27T05:16:55.581Z,1023.88
2019-02-27T05:17:36.180Z,1023.9
2019-02-27T05:18:16.765Z,1023.85
2019-02-27T05:18:57.383Z,1023.9
2019-02-27T05:19:37.997Z,1023.87
2019-02-27T05:20:18.592Z,1023.85
2019-02-27T05:20:59.175Z,1023.87
2019-02-27T05:21:39.766Z,1023.92
2019-02-27T05:22:20.361Z,1023.94
2019-02-27T05:23:01.010Z,1023.89
2019-02-27T05:23:41.553Z,1023.9
2019-02-27T05:24:22.173Z,1023.87
2019-02-27T05:25:02.774Z,1023.9
2019-02-27T05:25:43.363Z,1023.91
2019-02-27T05:26:27.015Z,1023.89
2019-02-27T05:27:04.598Z,1023.86
2019-02-27T05:27:45.185Z,1023.85
2019-02-27T05:28:25.775Z,1023.87
2019-02-27T05:29:06.372Z,1023.85
2019-02-27T05:29:46.964Z,1023.83
2019-02-27T05:30:27.556Z,1023.87
2019-02-27T05:31:08.160Z,1023.83
2019-02-27T05:31:50.099Z,1023.83
2019-02-27T05:32:29.401Z,1023.83
2019-02-27T05:33:09.990Z,1023.83
2019-02-27T05:33:50.584Z,1023.86
2019-02-27T05:34:31.184Z,1023.79
2019-02-27T05:35:11.769Z,1023.81
2019-02-27T05:35:56.936Z,1023.83
2019-02-27T05:36:32.962Z,1023.84
2019-02-27T05:37:13.548Z,1023.84
2019-02-27T05:37:54.141Z,1023.85
2019-02-27T05:38:34.740Z,1023.83
2019-02-27T05:39:17.248Z,1023.87
2019-02-27T05:39:55.917Z,1023.84
2019-02-27T05:40:36.526Z,1023.9
2019-02-27T05:41:17.125Z,1023.9
2019-02-27T05:41:57.706Z,1023.91
2019-02-27T05:42:38.960Z,1023.9
2019-02-27T05:43:18.912Z,1023.89
2019-02-27T05:43:59.516Z,1023.88
2019-02-27T05:44:40.162Z,1023.92
2019-02-27T05:45:20.751Z,1023.87
2019-02-27T05:46:03.148Z,1023.89
2019-02-27T05:46:41.923Z,1023.92
2019-02-27T05:47:22.527Z,1023.9
2019-02-27T05:48:03.142Z,1023.92
2019-02-27T05:48:43.732Z,1023.94
2019-02-27T05:49:26.462Z,1023.91
2019-02-27T05:50:04.931Z,1023.93
2019-02-27T05:50:45.516Z,1023.93
2019-02-27T05:51:26.112Z,1023.93
2019-02-27T05:52:06.692Z,1023.95
2019-02-27T05:52:48.728Z,1023.95
2019-02-27T05:53:27.902Z,1023.94
2019-02-27T05:54:08.484Z,1023.94
2019-02-27T05:54:49.092Z,1023.94
2019-02-27T05:55:29.692Z,1023.95
2019-02-27T05:56:10.298Z,1023.94
2019-02-27T05:56:50.921Z,1023.97
2019-02-27T05:57:31.528Z,1023.94
2019-02-27T05:58:12.100Z,1023.95
2019-02-27T05:58:55.839Z,1023.94
2019-02-27T05:59:33.290Z,1023.95
2019-02-27T06:00:13.909Z,1023.92
2019-02-27T06:00:54.497Z,1023.94
2019-02-27T06:01:37.697Z,1023.93
2019-02-27T06:02:15.681Z,1023.94
2019-02-27T06:02:56.887Z,1023.96
2019-02-27T06:03:36.941Z,1023.98
2019-02-27T06:04:18.163Z,1023.97
2019-02-27T06:04:59.038Z,1023.95
2019-02-27T06:05:38.707Z,1023.94
2019-02-27T06:06:19.308Z,1023.93
2019-02-27T06:06:59.931Z,1023.93
2019-02-27T06:07:40.532Z,1023.92
2019-02-27T06:08:21.120Z,1023.9
2019-02-27T06:09:01.719Z,1023.88
2019-02-27T06:09:43.726Z,1023.88
2019-02-27T06:10:23.639Z,1023.92
2019-02-27T06:11:03.538Z,1023.92
2019-02-27T06:11:44.130Z,1023.89
2019-02-27T06:12:24.750Z,1023.91
2019-02-27T06:13:05.343Z,1023.91
2019-02-27T06:13:47.443Z,1023.88
2019-02-27T06:14:26.542Z,1023.93
2019-02-27T06:15:07.148Z,1023.89
2019-02-27T06:15:49.183Z,1023.89
2019-02-27T06:16:28.384Z,1023.87
2019-02-27T06:17:10.062Z,1023.87
2019-02-27T06:17:49.842Z,1023.86
2019-02-27T06:18:30.205Z,1023.89
2019-02-27T06:19:10.800Z,1023.87
2019-02-27T06:19:51.394Z,1023.83
2019-02-27T06:20:31.983Z,1023.85
2019-02-27T06:21:13.296Z,1023.85
2019-02-27T06:21:56.025Z,1023.82
2019-02-27T06:22:33.800Z,1023.8
2019-02-27T06:23:14.396Z,1023.79
2019-02-27T06:23:54.985Z,1023.8
2019-02-27T06:24:35.585Z,1023.77
2019-02-27T06:25:21.461Z,1023.77
2019-02-27T06:25:59.366Z,1023.79
2019-02-27T06:26:37.405Z,1023.76
2019-02-27T06:27:18.037Z,1023.74
2019-02-27T06:27:58.632Z,1023.74
2019-02-27T06:28:39.206Z,1023.73
2019-02-27T06:29:23.134Z,1023.74
2019-02-27T06:30:00.418Z,1023.73
2019-02-27T06:30:41.001Z,1023.74
2019-02-27T06:31:21.597Z,1023.7
2019-02-27T06:32:02.187Z,1023.72
2019-02-27T06:32:42.788Z,1023.73
2019-02-27T06:33:23.402Z,1023.74
2019-02-27T06:34:03.986Z,1023.76
2019-02-27T06:34:44.591Z,1023.73
2019-02-27T06:35:25.166Z,1023.71
2019-02-27T06:36:07.749Z,1023.73
2019-02-27T06:36:46.392Z,1023.76
2019-02-27T06:37:26.976Z,1023.73
2019-02-27T06:38:07.560Z,1023.73
2019-02-27T06:38:48.181Z,1023.71
2019-02-27T06:39:28.782Z,1023.71
2019-02-27T06:40:09.357Z,1023.75
2019-02-27T06:40:49.951Z,1023.7
2019-02-27T06:41:30.544Z,1023.71
2019-02-27T06:42:11.139Z,1023.77
2019-02-27T06:42:53.816Z,1023.74
2019-02-27T06:43:32.362Z,1023.81
2019-02-27T06:44:12.958Z,1023.79
2019-02-27T06:44:53.550Z,1023.76
2019-02-27T06:45:34.147Z,1023.78
2019-02-27T06:46:17.286Z,1023.78
2019-02-27T06:46:55.333Z,1023.78
2019-02-27T06:47:36.219Z,1023.76
2019-02-27T06:48:16.515Z,1023.72
2019-02-27T06:48:57.098Z,1023.72
2019-02-27T06:49:37.680Z,1023.8
2019-02-27T06:50:18.442Z,1023.89
2019-02-27T06:51:00.820Z,1023.89
2019-02-27T06:51:41.992Z,1023.86
2019-02-27T06:52:23.205Z,1023.9
2019-02-27T06:53:03.801Z,1023.9
2019-02-27T06:53:44.420Z,1023.88
2019-02-27T06:54:25.012Z,1023.88
2019-02-27T06:55:05.692Z,1023.89
2019-02-27T06:55:46.328Z,1023.89
2019-02-27T06:56:26.979Z,1023.86
2019-02-27T06:57:08.350Z,1023.9
2019-02-27T06:57:48.362Z,1023.9
2019-02-27T06:58:29.006Z,1023.86
2019-02-27T06:59:09.664Z,1023.94
2019-02-27T06:59:50.268Z,1023.9
2019-02-27T07:00:35.742Z,1023.92
2019-02-27T07:01:13.218Z,1023.89
2019-02-27T07:01:52.024Z,1023.93
2019-02-27T07:02:32.625Z,1023.97
2019-02-27T07:03:13.205Z,1023.96
2019-02-27T07:03:53.803Z,1023.98
2019-02-27T07:04:36.418Z,1024.02
2019-02-27T07:05:15.018Z,1024.01
2019-02-27T07:05:55.621Z,1023.98
2019-02-27T07:06:36.894Z,1023.98
2019-02-27T07:07:16.952Z,1023.99
2019-02-27T07:07:57.546Z,1023.95
2019-02-27T07:08:38.705Z,1023.97
2019-02-27T07:09:18.730Z,1023.98
2019-02-27T07:09:59.338Z,1023.98
2019-02-27T07:10:39.944Z,1023.98
2019-02-27T07:11:20.534Z,1024
2019-02-27T07:12:01.146Z,1024.03
2019-02-27T07:12:41.741Z,1024.05
2019-02-27T07:13:22.347Z,1024.03
2019-02-27T07:14:02.978Z,1024.04
2019-02-27T07:14:43.574Z,1024.05
2019-02-27T07:15:24.152Z,1024.07
2019-02-27T07:16:04.742Z,1024.07
2019-02-27T07:16:45.328Z,1024.09
2019-02-27T07:17:25.904Z,1024.1
2019-02-27T07:18:06.734Z,1024.14
2019-02-27T07:18:47.110Z,1024.14
2019-02-27T07:19:27.700Z,1024.17
2019-02-27T07:20:08.856Z,1024.17
2019-02-27T07:20:48.904Z,1024.18
2019-02-27T07:21:32.718Z,1024.22
2019-02-27T07:22:12.490Z,1024.22
2019-02-27T07:22:50.710Z,1024.25
2019-02-27T07:23:31.309Z,1024.19
2019-02-27T07:24:11.915Z,1024.23
2019-02-27T07:24:52.504Z,1024.25
2019-02-27T07:25:33.134Z,1024.27
2019-02-27T07:26:15.788Z,1024.27
2019-02-27T07:26:54.458Z,1024.27
2019-02-27T07:27:35.189Z,1024.27
2019-02-27T07:28:15.902Z,1024.27
2019-02-27T07:28:56.502Z,1024.25
2019-02-27T07:29:37.103Z,1024.26
2019-02-27T07:30:17.687Z,1024.29
2019-02-27T07:30:58.294Z,1024.26
2019-02-27T07:31:38.928Z,1024.29
2019-02-27T07:32:19.762Z,1024.26
2019-02-27T07:33:00.354Z,1024.26
2019-02-27T07:33:41.202Z,1024.24
2019-02-27T07:34:21.534Z,1024.22
2019-02-27T07:35:02.166Z,1024.25
2019-02-27T07:35:43.022Z,1024.25
2019-02-27T07:36:24.182Z,1024.27
2019-02-27T07:37:04.928Z,1024.3
2019-02-27T07:37:47.939Z,1024.28
2019-02-27T07:38:26.294Z,1024.29
2019-02-27T07:39:07.060Z,1024.29
2019-02-27T07:39:47.804Z,1024.31
2019-02-27T07:40:28.388Z,1024.3
2019-02-27T07:41:09.038Z,1024.31
2019-02-27T07:41:49.636Z,1024.3
2019-02-27T07:42:32.086Z,1024.3
2019-02-27T07:43:10.856Z,1024.26
2019-02-27T07:43:51.494Z,1024.25
2019-02-27T07:44:32.212Z,1024.27
2019-02-27T07:45:12.712Z,1024.28
2019-02-27T07:45:54.313Z,1024.31
2019-02-27T07:46:35.478Z,1024.29
2019-02-27T07:47:14.508Z,1024.26
2019-02-27T07:47:55.150Z,1024.25
2019-02-27T07:48:35.734Z,1024.26
2019-02-27T07:49:16.353Z,1024.3
2019-02-27T07:49:56.941Z,1024.33
2019-02-27T07:50:37.582Z,1024.35
2019-02-27T07:51:20.727Z,1024.36
2019-02-27T07:51:58.846Z,1024.37
2019-02-27T07:52:39.447Z,1024.36
2019-02-27T07:53:20.044Z,1024.35
2019-02-27T07:54:00.656Z,1024.37
2019-02-27T07:54:41.497Z,1024.39
2019-02-27T07:55:23.364Z,1024.35
2019-02-27T07:56:02.579Z,1024.36
2019-02-27T07:56:43.119Z,1024.32
2019-02-27T07:57:23.724Z,1024.34
2019-02-27T07:58:04.338Z,1024.32
2019-02-27T07:58:44.926Z,1024.31
2019-02-27T07:59:25.522Z,1024.32
2019-02-27T08:00:06.120Z,1024.25
2019-02-27T08:00:47.044Z,1024.26
2019-02-27T08:01:27.288Z,1024.29
2019-02-27T08:02:07.883Z,1024.25
2019-02-27T08:02:48.475Z,1024.26
2019-02-27T08:03:29.062Z,1024.26
2019-02-27T08:04:09.654Z,1024.23
2019-02-27T08:04:51.658Z,1024.25
2019-02-27T08:05:30.841Z,1024.24
2019-02-27T08:06:11.438Z,1024.25
2019-02-27T08:06:52.040Z,1024.26
2019-02-27T08:07:32.649Z,1024.24
2019-02-27T08:08:13.244Z,1024.24
2019-02-27T08:08:56.647Z,1024.25
2019-02-27T08:09:34.456Z,1024.2
2019-02-27T08:10:15.060Z,1024.23
2019-02-27T08:10:55.664Z,1024.22
2019-02-27T08:11:36.284Z,1024.27
2019-02-27T08:12:17.482Z,1024.3
2019-02-27T08:12:57.465Z,1024.27
2019-02-27T08:13:38.048Z,1024.31
2019-02-27T08:14:18.654Z,1024.29
2019-02-27T08:14:59.889Z,1024.31
2019-02-27T08:15:39.830Z,1024.33
2019-02-27T08:16:20.462Z,1024.33
2019-02-27T08:17:02.421Z,1024.33
2019-02-27T08:17:41.671Z,1024.34